sensor_id;sensor_type;location;lat;lon;timestamp;temperature;humidity
53314;DHT22;39202;51.468;7.146;2023-04-21T00:01:36;23.90;37.90
53314;DHT22;39202;51.468;7.146;2023-04-21T00:06:40;23.50;37.90
53314;DHT22;39202;51.468;7.146;2023-04-21T00:11:42;23.50;37.90
53314;DHT22;39202;51.468;7.146;2023-04-21T00:16:44;23.50;37.80
53314;DHT22;39202;51.468;7.146;2023-04-21T00:21:47;23.40;37.90
53314;DHT22;39202;51.468;7.146;2023-04-21T00:26:48;23.40;37.90
53314;DHT22;39202;51.468;7.146;2023-04-21T00:31:50;23.40;38.10
53314;DHT22;39202;51.468;7.146;2023-04-21T00:36:53;23.40;38.20
53314;DHT22;39202;51.468;7.146;2023-04-21T00:41:55;23.40;38.20
53314;DHT22;39202;51.468;7.146;2023-04-21T00:46:57;23.40;38.20
53314;DHT22;39202;51.468;7.146;2023-04-21T00:52:00;23.50;38.20
53314;DHT22;39202;51.468;7.146;2023-04-21T00:57:02;23.30;38.20
53314;DHT22;39202;51.468;7.146;2023-04-21T01:02:07;23.30;38.30
53314;DHT22;39202;51.468;7.146;2023-04-21T01:07:10;23.30;38.30
53314;DHT22;39202;51.468;7.146;2023-04-21T01:12:12;23.40;38.30
53314;DHT22;39202;51.468;7.146;2023-04-21T01:17:13;23.30;38.30
53314;DHT22;39202;51.468;7.146;2023-04-21T01:22:19;23.30;38.40
53314;DHT22;39202;51.468;7.146;2023-04-21T01:27:21;23.30;38.40
53314;DHT22;39202;51.468;7.146;2023-04-21T01:32:24;23.30;38.40
53314;DHT22;39202;51.468;7.146;2023-04-21T01:37:29;23.30;38.40
53314;DHT22;39202;51.468;7.146;2023-04-21T01:42:33;23.30;38.50
53314;DHT22;39202;51.468;7.146;2023-04-21T01:47:35;23.30;38.50
53314;DHT22;39202;51.468;7.146;2023-04-21T01:52:38;23.30;38.50
53314;DHT22;39202;51.468;7.146;2023-04-21T01:57:41;23.20;38.50
53314;DHT22;39202;51.468;7.146;2023-04-21T02:02:43;23.20;38.40
53314;DHT22;39202;51.468;7.146;2023-04-21T02:07:46;23.20;38.50
53314;DHT22;39202;51.468;7.146;2023-04-21T02:12:48;23.20;38.50
53314;DHT22;39202;51.468;7.146;2023-04-21T02:17:49;23.20;38.50
53314;DHT22;39202;51.468;7.146;2023-04-21T02:22:52;23.20;38.50
53314;DHT22;39202;51.468;7.146;2023-04-21T02:27:54;23.20;38.60
53314;DHT22;39202;51.468;7.146;2023-04-21T02:32:56;23.20;38.60
53314;DHT22;39202;51.468;7.146;2023-04-21T02:37:59;23.20;38.60
53314;DHT22;39202;51.468;7.146;2023-04-21T02:43:06;23.30;38.70
53314;DHT22;39202;51.468;7.146;2023-04-21T02:48:08;23.20;38.60
53314;DHT22;39202;51.468;7.146;2023-04-21T02:53:11;23.20;38.70
53314;DHT22;39202;51.468;7.146;2023-04-21T02:58:13;23.20;38.70
53314;DHT22;39202;51.468;7.146;2023-04-21T03:03:14;23.10;38.70
53314;DHT22;39202;51.468;7.146;2023-04-21T03:08:17;23.10;38.70
53314;DHT22;39202;51.468;7.146;2023-04-21T03:13:19;23.10;38.70
53314;DHT22;39202;51.468;7.146;2023-04-21T03:18:21;23.00;38.60
53314;DHT22;39202;51.468;7.146;2023-04-21T03:23:24;23.10;38.80
53314;DHT22;39202;51.468;7.146;2023-04-21T03:28:25;23.10;38.80
53314;DHT22;39202;51.468;7.146;2023-04-21T03:33:27;23.10;38.80
53314;DHT22;39202;51.468;7.146;2023-04-21T03:38:30;23.10;38.80
53314;DHT22;39202;51.468;7.146;2023-04-21T03:43:32;23.10;38.80
53314;DHT22;39202;51.468;7.146;2023-04-21T03:48:33;23.10;38.90
53314;DHT22;39202;51.468;7.146;2023-04-21T03:53:36;23.10;38.90
53314;DHT22;39202;51.468;7.146;2023-04-21T03:58:38;23.10;38.90
53314;DHT22;39202;51.468;7.146;2023-04-21T04:03:40;23.10;38.90
53314;DHT22;39202;51.468;7.146;2023-04-21T04:08:43;23.10;38.90
53314;DHT22;39202;51.468;7.146;2023-04-21T04:13:45;23.10;38.90
53314;DHT22;39202;51.468;7.146;2023-04-21T04:18:48;23.10;39.00
53314;DHT22;39202;51.468;7.146;2023-04-21T04:23:51;23.00;39.00
53314;DHT22;39202;51.468;7.146;2023-04-21T04:28:53;23.00;39.00
53314;DHT22;39202;51.468;7.146;2023-04-21T04:33:55;23.00;39.00
53314;DHT22;39202;51.468;7.146;2023-04-21T04:38:58;23.00;39.00
53314;DHT22;39202;51.468;7.146;2023-04-21T04:44:00;23.00;39.10
53314;DHT22;39202;51.468;7.146;2023-04-21T04:49:04;23.00;39.10
53314;DHT22;39202;51.468;7.146;2023-04-21T04:54:07;23.00;39.10
53314;DHT22;39202;51.468;7.146;2023-04-21T04:59:09;23.00;39.10
53314;DHT22;39202;51.468;7.146;2023-04-21T05:04:11;23.00;39.10
53314;DHT22;39202;51.468;7.146;2023-04-21T05:09:17;23.00;39.80
53314;DHT22;39202;51.468;7.146;2023-04-21T05:14:18;22.40;38.90
53314;DHT22;39202;51.468;7.146;2023-04-21T05:19:20;23.00;39.20
53314;DHT22;39202;51.468;7.146;2023-04-21T05:24:23;23.00;39.10
53314;DHT22;39202;51.468;7.146;2023-04-21T05:29:25;23.00;39.20
53314;DHT22;39202;51.468;7.146;2023-04-21T05:34:27;23.00;39.20
53314;DHT22;39202;51.468;7.146;2023-04-21T05:39:30;23.00;39.20
53314;DHT22;39202;51.468;7.146;2023-04-21T05:44:31;23.00;39.30
53314;DHT22;39202;51.468;7.146;2023-04-21T05:49:33;22.90;39.10
53314;DHT22;39202;51.468;7.146;2023-04-21T05:54:36;22.90;39.20
53314;DHT22;39202;51.468;7.146;2023-04-21T05:59:40;22.90;39.30
53314;DHT22;39202;51.468;7.146;2023-04-21T06:04:41;22.90;39.20
53314;DHT22;39202;51.468;7.146;2023-04-21T06:09:49;23.00;39.30
53314;DHT22;39202;51.468;7.146;2023-04-21T06:14:51;22.90;39.40
53314;DHT22;39202;51.468;7.146;2023-04-21T06:19:57;23.00;39.40
53314;DHT22;39202;51.468;7.146;2023-04-21T06:25:00;23.00;39.40
53314;DHT22;39202;51.468;7.146;2023-04-21T06:30:01;23.00;39.50
53314;DHT22;39202;51.468;7.146;2023-04-21T06:35:04;23.00;39.60
53314;DHT22;39202;51.468;7.146;2023-04-21T06:40:07;23.10;39.80
53314;DHT22;39202;51.468;7.146;2023-04-21T06:45:11;23.20;40.00
53314;DHT22;39202;51.468;7.146;2023-04-21T06:50:13;23.20;40.00
53314;DHT22;39202;51.468;7.146;2023-04-21T06:55:17;23.30;40.10
53314;DHT22;39202;51.468;7.146;2023-04-21T07:00:19;23.40;40.20
53314;DHT22;39202;51.468;7.146;2023-04-21T07:05:20;23.50;40.20
53314;DHT22;39202;51.468;7.146;2023-04-21T07:10:24;23.50;40.10
53314;DHT22;39202;51.468;7.146;2023-04-21T07:15:25;23.60;40.10
53314;DHT22;39202;51.468;7.146;2023-04-21T07:20:27;23.70;40.10
53314;DHT22;39202;51.468;7.146;2023-04-21T07:25:30;23.80;40.10
53314;DHT22;39202;51.468;7.146;2023-04-21T07:30:32;23.80;40.10
53314;DHT22;39202;51.468;7.146;2023-04-21T07:35:33;23.90;40.10
53314;DHT22;39202;51.468;7.146;2023-04-21T07:40:37;23.90;40.10
53314;DHT22;39202;51.468;7.146;2023-04-21T07:45:40;24.00;40.10
53314;DHT22;39202;51.468;7.146;2023-04-21T07:50:41;24.00;40.10
53314;DHT22;39202;51.468;7.146;2023-04-21T07:55:44;24.10;40.10
53314;DHT22;39202;51.468;7.146;2023-04-21T08:00:46;24.10;40.10
53314;DHT22;39202;51.468;7.146;2023-04-21T08:05:48;24.20;40.10
53314;DHT22;39202;51.468;7.146;2023-04-21T08:10:52;24.20;40.10
53314;DHT22;39202;51.468;7.146;2023-04-21T08:15:54;24.20;40.10
53314;DHT22;39202;51.468;7.146;2023-04-21T08:20:55;24.20;40.10
53314;DHT22;39202;51.468;7.146;2023-04-21T08:25:59;24.20;40.10
53314;DHT22;39202;51.468;7.146;2023-04-21T08:31:02;24.30;40.20
53314;DHT22;39202;51.468;7.146;2023-04-21T08:36:05;24.30;40.20
53314;DHT22;39202;51.468;7.146;2023-04-21T08:41:08;24.30;40.20
53314;DHT22;39202;51.468;7.146;2023-04-21T08:46:11;24.30;40.20
53314;DHT22;39202;51.468;7.146;2023-04-21T08:51:21;24.30;40.30
53314;DHT22;39202;51.468;7.146;2023-04-21T08:56:25;24.30;40.30
53314;DHT22;39202;51.468;7.146;2023-04-21T09:01:27;24.40;40.40
53314;DHT22;39202;51.468;7.146;2023-04-21T09:06:39;24.40;40.40
53314;DHT22;39202;51.468;7.146;2023-04-21T09:11:53;24.40;40.50
53314;DHT22;39202;51.468;7.146;2023-04-21T09:16:59;24.40;40.50
53314;DHT22;39202;51.468;7.146;2023-04-21T09:22:02;24.50;40.50
53314;DHT22;39202;51.468;7.146;2023-04-21T09:27:05;24.50;40.50
53314;DHT22;39202;51.468;7.146;2023-04-21T09:32:10;24.50;40.50
53314;DHT22;39202;51.468;7.146;2023-04-21T09:37:13;24.60;40.60
53314;DHT22;39202;51.468;7.146;2023-04-21T09:42:16;24.50;40.50
53314;DHT22;39202;51.468;7.146;2023-04-21T09:47:18;24.50;40.50
53314;DHT22;39202;51.468;7.146;2023-04-21T09:52:23;24.60;40.60
53314;DHT22;39202;51.468;7.146;2023-04-21T09:57:30;24.60;40.60
53314;DHT22;39202;51.468;7.146;2023-04-21T10:02:34;24.60;40.70
53314;DHT22;39202;51.468;7.146;2023-04-21T10:07:36;24.60;40.60
53314;DHT22;39202;51.468;7.146;2023-04-21T10:12:39;24.60;40.60
53314;DHT22;39202;51.468;7.146;2023-04-21T10:17:43;24.60;40.50
53314;DHT22;39202;51.468;7.146;2023-04-21T10:22:56;24.70;40.50
53314;DHT22;39202;51.468;7.146;2023-04-21T10:27:59;24.70;40.50
53314;DHT22;39202;51.468;7.146;2023-04-21T10:33:01;24.70;40.40
53314;DHT22;39202;51.468;7.146;2023-04-21T10:38:05;24.70;40.40
53314;DHT22;39202;51.468;7.146;2023-04-21T10:43:41;24.60;40.40
53314;DHT22;39202;51.468;7.146;2023-04-21T10:48:51;24.60;40.40
53314;DHT22;39202;51.468;7.146;2023-04-21T10:53:53;24.60;40.40
53314;DHT22;39202;51.468;7.146;2023-04-21T10:58:57;24.60;40.30
53314;DHT22;39202;51.468;7.146;2023-04-21T11:03:59;24.60;40.30
53314;DHT22;39202;51.468;7.146;2023-04-21T11:09:01;24.60;40.30
53314;DHT22;39202;51.468;7.146;2023-04-21T11:14:04;24.60;40.30
53314;DHT22;39202;51.468;7.146;2023-04-21T11:19:06;24.60;40.30
53314;DHT22;39202;51.468;7.146;2023-04-21T11:24:08;24.60;40.30
53314;DHT22;39202;51.468;7.146;2023-04-21T11:29:11;24.60;40.30
53314;DHT22;39202;51.468;7.146;2023-04-21T11:34:14;24.60;40.40
53314;DHT22;39202;51.468;7.146;2023-04-21T11:39:17;24.60;40.40
53314;DHT22;39202;51.468;7.146;2023-04-21T11:44:33;24.60;40.40
53314;DHT22;39202;51.468;7.146;2023-04-21T11:49:43;24.70;40.50
53314;DHT22;39202;51.468;7.146;2023-04-21T11:54:44;24.70;40.40
53314;DHT22;39202;51.468;7.146;2023-04-21T11:59:48;24.80;40.40
53314;DHT22;39202;51.468;7.146;2023-04-21T12:04:57;24.80;40.30
53314;DHT22;39202;51.468;7.146;2023-04-21T12:09:59;24.80;40.30
53314;DHT22;39202;51.468;7.146;2023-04-21T12:15:04;24.80;40.30
53314;DHT22;39202;51.468;7.146;2023-04-21T12:20:07;24.80;40.30
53314;DHT22;39202;51.468;7.146;2023-04-21T12:25:09;24.80;40.30
53314;DHT22;39202;51.468;7.146;2023-04-21T12:30:13;24.80;40.30
53314;DHT22;39202;51.468;7.146;2023-04-21T12:35:15;24.80;40.30
53314;DHT22;39202;51.468;7.146;2023-04-21T12:40:17;24.80;41.00
53314;DHT22;39202;51.468;7.146;2023-04-21T12:45:20;24.80;40.50
53314;DHT22;39202;51.468;7.146;2023-04-21T12:50:22;24.80;40.40
53314;DHT22;39202;51.468;7.146;2023-04-21T12:55:23;24.90;40.30
53314;DHT22;39202;51.468;7.146;2023-04-21T13:00:27;24.90;40.40
53314;DHT22;39202;51.468;7.146;2023-04-21T13:05:29;24.80;40.40
53314;DHT22;39202;51.468;7.146;2023-04-21T13:10:30;24.80;40.40
53314;DHT22;39202;51.468;7.146;2023-04-21T13:15:34;24.80;41.10
53314;DHT22;39202;51.468;7.146;2023-04-21T13:20:36;24.90;40.50
53314;DHT22;39202;51.468;7.146;2023-04-21T13:25:37;24.80;40.40
53314;DHT22;39202;51.468;7.146;2023-04-21T13:30:41;24.80;40.50
53314;DHT22;39202;51.468;7.146;2023-04-21T13:35:42;24.90;40.50
53314;DHT22;39202;51.468;7.146;2023-04-21T13:40:44;24.90;40.60
53314;DHT22;39202;51.468;7.146;2023-04-21T13:45:49;24.80;40.50
53314;DHT22;39202;51.468;7.146;2023-04-21T13:50:51;24.90;40.60
53314;DHT22;39202;51.468;7.146;2023-04-21T13:55:53;24.90;40.50
53314;DHT22;39202;51.468;7.146;2023-04-21T14:00:57;24.90;40.50
53314;DHT22;39202;51.468;7.146;2023-04-21T14:05:59;24.90;40.50
53314;DHT22;39202;51.468;7.146;2023-04-21T14:11:02;24.90;40.50
53314;DHT22;39202;51.468;7.146;2023-04-21T14:16:06;25.00;40.60
53314;DHT22;39202;51.468;7.146;2023-04-21T14:21:08;25.00;40.60
53314;DHT22;39202;51.468;7.146;2023-04-21T14:26:10;25.00;40.50
53314;DHT22;39202;51.468;7.146;2023-04-21T14:31:13;25.00;40.50
53314;DHT22;39202;51.468;7.146;2023-04-21T14:36:15;25.00;40.50
53314;DHT22;39202;51.468;7.146;2023-04-21T14:41:17;25.00;40.40
53314;DHT22;39202;51.468;7.146;2023-04-21T14:46:20;25.00;40.40
53314;DHT22;39202;51.468;7.146;2023-04-21T14:51:22;25.00;40.30
53314;DHT22;39202;51.468;7.146;2023-04-21T14:56:24;25.00;40.30
53314;DHT22;39202;51.468;7.146;2023-04-21T15:01:27;25.00;40.30
53314;DHT22;39202;51.468;7.146;2023-04-21T15:06:29;25.00;40.30
53314;DHT22;39202;51.468;7.146;2023-04-21T15:11:31;25.00;40.30
53314;DHT22;39202;51.468;7.146;2023-04-21T15:16:34;25.00;40.30
53314;DHT22;39202;51.468;7.146;2023-04-21T15:21:36;25.00;40.30
53314;DHT22;39202;51.468;7.146;2023-04-21T15:26:38;25.00;40.30
53314;DHT22;39202;51.468;7.146;2023-04-21T15:31:41;25.00;40.30
53314;DHT22;39202;51.468;7.146;2023-04-21T15:36:42;25.00;40.30
53314;DHT22;39202;51.468;7.146;2023-04-21T15:41:44;25.00;40.30
53314;DHT22;39202;51.468;7.146;2023-04-21T15:46:47;25.00;40.30
53314;DHT22;39202;51.468;7.146;2023-04-21T15:51:49;25.00;40.30
53314;DHT22;39202;51.468;7.146;2023-04-21T15:56:51;25.00;40.30
53314;DHT22;39202;51.468;7.146;2023-04-21T16:01:54;25.00;40.30
53314;DHT22;39202;51.468;7.146;2023-04-21T16:06:57;25.00;40.30
53314;DHT22;39202;51.468;7.146;2023-04-21T16:11:58;25.00;40.30
53314;DHT22;39202;51.468;7.146;2023-04-21T16:17:09;25.00;40.30
53314;DHT22;39202;51.468;7.146;2023-04-21T16:22:10;25.00;40.30
53314;DHT22;39202;51.468;7.146;2023-04-21T16:27:12;24.90;40.20
53314;DHT22;39202;51.468;7.146;2023-04-21T16:32:15;24.90;40.30
53314;DHT22;39202;51.468;7.146;2023-04-21T16:37:17;25.00;40.20
53314;DHT22;39202;51.468;7.146;2023-04-21T16:42:19;24.80;40.20
53314;DHT22;39202;51.468;7.146;2023-04-21T16:47:22;24.90;40.20
53314;DHT22;39202;51.468;7.146;2023-04-21T16:52:23;24.90;40.20
53314;DHT22;39202;51.468;7.146;2023-04-21T16:57:26;24.90;40.20
53314;DHT22;39202;51.468;7.146;2023-04-21T17:02:30;24.90;40.30
53314;DHT22;39202;51.468;7.146;2023-04-21T17:07:32;24.90;40.30
53314;DHT22;39202;51.468;7.146;2023-04-21T17:12:34;24.80;40.20
53314;DHT22;39202;51.468;7.146;2023-04-21T17:17:39;24.80;40.20
53314;DHT22;39202;51.468;7.146;2023-04-21T17:22:42;24.80;40.20
53314;DHT22;39202;51.468;7.146;2023-04-21T17:27:44;24.80;40.20
53314;DHT22;39202;51.468;7.146;2023-04-21T17:32:47;24.80;40.90
53314;DHT22;39202;51.468;7.146;2023-04-21T17:37:49;24.80;40.20
53314;DHT22;39202;51.468;7.146;2023-04-21T17:42:50;24.80;40.30
53314;DHT22;39202;51.468;7.146;2023-04-21T17:47:53;24.70;40.20
53314;DHT22;39202;51.468;7.146;2023-04-21T17:52:55;24.80;40.90
53314;DHT22;39202;51.468;7.146;2023-04-21T17:57:57;24.70;40.20
53314;DHT22;39202;51.468;7.146;2023-04-21T18:03:00;24.70;40.20
53314;DHT22;39202;51.468;7.146;2023-04-21T18:08:02;24.70;40.20
53314;DHT22;39202;51.468;7.146;2023-04-21T18:13:04;24.70;40.20
53314;DHT22;39202;51.468;7.146;2023-04-21T18:18:07;24.60;40.20
53314;DHT22;39202;51.468;7.146;2023-04-21T18:23:09;24.70;40.20
53314;DHT22;39202;51.468;7.146;2023-04-21T18:28:11;24.70;40.30
53314;DHT22;39202;51.468;7.146;2023-04-21T18:33:15;24.60;40.20
53314;DHT22;39202;51.468;7.146;2023-04-21T18:38:17;24.60;40.20
53314;DHT22;39202;51.468;7.146;2023-04-21T18:43:19;24.50;40.20
53314;DHT22;39202;51.468;7.146;2023-04-21T18:48:23;24.60;40.30
53314;DHT22;39202;51.468;7.146;2023-04-21T18:53:25;24.60;40.30
53314;DHT22;39202;51.468;7.146;2023-04-21T18:58:26;24.60;40.30
53314;DHT22;39202;51.468;7.146;2023-04-21T19:03:29;24.60;40.30
53314;DHT22;39202;51.468;7.146;2023-04-21T19:08:31;24.50;40.20
53314;DHT22;39202;51.468;7.146;2023-04-21T19:13:33;24.50;40.20
53314;DHT22;39202;51.468;7.146;2023-04-21T19:18:36;24.50;40.20
53314;DHT22;39202;51.468;7.146;2023-04-21T19:23:38;24.50;40.30
53314;DHT22;39202;51.468;7.146;2023-04-21T19:28:41;24.50;40.30
53314;DHT22;39202;51.468;7.146;2023-04-21T19:33:44;24.50;40.30
53314;DHT22;39202;51.468;7.146;2023-04-21T19:38:46;24.50;40.30
53314;DHT22;39202;51.468;7.146;2023-04-21T19:43:49;24.50;40.30
53314;DHT22;39202;51.468;7.146;2023-04-21T19:48:52;24.40;40.30
53314;DHT22;39202;51.468;7.146;2023-04-21T19:53:53;24.40;40.30
53314;DHT22;39202;51.468;7.146;2023-04-21T19:58:55;24.40;40.30
53314;DHT22;39202;51.468;7.146;2023-04-21T20:03:58;24.40;40.30
53314;DHT22;39202;51.468;7.146;2023-04-21T20:09:00;24.40;40.30
53314;DHT22;39202;51.468;7.146;2023-04-21T20:14:05;24.40;40.20
53314;DHT22;39202;51.468;7.146;2023-04-21T20:19:08;24.40;40.20
53314;DHT22;39202;51.468;7.146;2023-04-21T20:29:22;24.40;40.20
53314;DHT22;39202;51.468;7.146;2023-04-21T20:34:25;24.40;40.20
53314;DHT22;39202;51.468;7.146;2023-04-21T20:39:27;24.30;40.20
53314;DHT22;39202;51.468;7.146;2023-04-21T20:44:28;24.40;40.30
53314;DHT22;39202;51.468;7.146;2023-04-21T20:49:32;24.30;40.20
53314;DHT22;39202;51.468;7.146;2023-04-21T20:54:34;24.30;40.30
53314;DHT22;39202;51.468;7.146;2023-04-21T20:59:35;24.20;40.20
53314;DHT22;39202;51.468;7.146;2023-04-21T21:04:38;24.30;40.20
53314;DHT22;39202;51.468;7.146;2023-04-21T21:09:40;24.30;40.30
53314;DHT22;39202;51.468;7.146;2023-04-21T21:14:42;24.30;40.30
53314;DHT22;39202;51.468;7.146;2023-04-21T21:19:45;24.20;40.20
53314;DHT22;39202;51.468;7.146;2023-04-21T21:24:48;24.20;40.30
53314;DHT22;39202;51.468;7.146;2023-04-21T21:29:50;24.20;40.20
53314;DHT22;39202;51.468;7.146;2023-04-21T21:34:53;24.20;40.20
53314;DHT22;39202;51.468;7.146;2023-04-21T21:39:55;24.20;40.20
53314;DHT22;39202;51.468;7.146;2023-04-21T21:44:57;24.20;40.20
53314;DHT22;39202;51.468;7.146;2023-04-21T21:50:00;24.20;40.20
53314;DHT22;39202;51.468;7.146;2023-04-21T21:55:02;24.20;40.20
53314;DHT22;39202;51.468;7.146;2023-04-21T22:00:05;24.20;40.30
53314;DHT22;39202;51.468;7.146;2023-04-21T22:05:09;24.10;40.30
53314;DHT22;39202;51.468;7.146;2023-04-21T22:10:11;24.10;40.30
53314;DHT22;39202;51.468;7.146;2023-04-21T22:15:13;24.10;40.30
53314;DHT22;39202;51.468;7.146;2023-04-21T22:20:17;24.10;40.30
53314;DHT22;39202;51.468;7.146;2023-04-21T22:25:21;24.10;40.30
53314;DHT22;39202;51.468;7.146;2023-04-21T22:30:26;24.10;40.30
53314;DHT22;39202;51.468;7.146;2023-04-21T22:35:29;24.10;40.30
53314;DHT22;39202;51.468;7.146;2023-04-21T22:40:31;24.10;40.40
53314;DHT22;39202;51.468;7.146;2023-04-21T22:45:33;24.00;40.30
53314;DHT22;39202;51.468;7.146;2023-04-21T22:50:36;24.00;40.30
53314;DHT22;39202;51.468;7.146;2023-04-21T22:55:38;24.10;40.40
53314;DHT22;39202;51.468;7.146;2023-04-21T23:00:42;24.00;40.40
53314;DHT22;39202;51.468;7.146;2023-04-21T23:05:45;24.00;40.30
53314;DHT22;39202;51.468;7.146;2023-04-21T23:10:47;24.00;40.40
53314;DHT22;39202;51.468;7.146;2023-04-21T23:15:48;24.00;40.40
53314;DHT22;39202;51.468;7.146;2023-04-21T23:20:52;24.00;40.40
53314;DHT22;39202;51.468;7.146;2023-04-21T23:25:54;23.90;40.40
53314;DHT22;39202;51.468;7.146;2023-04-21T23:30:56;23.90;40.40
53314;DHT22;39202;51.468;7.146;2023-04-21T23:35:59;24.00;40.40
53314;DHT22;39202;51.468;7.146;2023-04-21T23:41:01;23.90;40.40
53314;DHT22;39202;51.468;7.146;2023-04-21T23:46:02;23.90;40.40
53314;DHT22;39202;51.468;7.146;2023-04-21T23:51:06;23.90;40.40
53314;DHT22;39202;51.468;7.146;2023-04-21T23:56:07;23.90;41.10
